createdAt,value
2023-05-25T00:01:58.994Z,18.98
2023-05-25T00:04:30.735Z,19.30
2023-05-25T00:06:59.218Z,19.10
2023-05-25T00:09:27.843Z,19.13
2023-05-25T00:11:56.238Z,19.16
2023-05-25T00:14:24.711Z,19.09
2023-05-25T00:16:53.484Z,19.07
2023-05-25T00:19:23.283Z,19.11
2023-05-25T00:21:52.242Z,18.95
2023-05-25T00:24:20.960Z,19.10
2023-05-25T00:26:55.238Z,18.82
2023-05-25T00:29:23.939Z,18.91
2023-05-25T00:31:52.367Z,19.04
2023-05-25T00:34:20.879Z,19.07
2023-05-25T00:36:51.614Z,19.07
2023-05-25T00:39:21.022Z,19.24
2023-05-25T00:41:50.556Z,19.23
2023-05-25T00:44:21.892Z,19.12
2023-05-25T00:46:51.338Z,19.28
2023-05-25T00:49:20.884Z,19.18
2023-05-25T00:51:49.289Z,19.21
2023-05-25T00:54:19.657Z,19.19
2023-05-25T00:56:48.634Z,19.14
2023-05-25T00:59:19.025Z,19.01
2023-05-25T01:01:47.715Z,18.85
2023-05-25T01:04:16.578Z,18.86
2023-05-25T01:06:45.703Z,18.92
2023-05-25T01:09:14.717Z,19.04
2023-05-25T01:11:45.992Z,18.95
2023-05-25T01:14:14.634Z,18.76
2023-05-25T01:16:43.088Z,18.83
2023-05-25T01:19:11.913Z,18.86
2023-05-25T01:21:43.045Z,18.81
2023-05-25T01:24:13.082Z,18.71
2023-05-25T01:26:44.010Z,18.69
2023-05-25T01:29:12.479Z,18.72
2023-05-25T01:31:40.917Z,18.72
2023-05-25T01:34:09.679Z,18.82
2023-05-25T01:36:38.160Z,18.67
2023-05-25T01:39:11.065Z,18.70
2023-05-25T01:41:40.119Z,18.83
2023-05-25T01:44:08.771Z,18.75
2023-05-25T01:46:38.018Z,18.58
2023-05-25T01:49:10.273Z,18.81
2023-05-25T01:51:39.899Z,18.69
2023-05-25T01:54:11.293Z,18.74
2023-05-25T01:56:39.701Z,18.49
2023-05-25T01:59:08.072Z,18.79
2023-05-25T02:01:36.835Z,18.84
2023-05-25T02:04:06.782Z,18.67
2023-05-25T02:06:36.753Z,18.85
2023-05-25T02:09:07.216Z,18.70
2023-05-25T02:11:36.988Z,18.53
2023-05-25T02:14:05.696Z,18.30
2023-05-25T02:16:34.159Z,18.39
2023-05-25T02:19:02.910Z,18.24
2023-05-25T02:21:31.627Z,18.18
2023-05-25T02:24:00.040Z,18.27
2023-05-25T02:26:28.733Z,18.30
2023-05-25T02:28:58.398Z,18.46
2023-05-25T02:31:28.245Z,18.45
2023-05-25T02:33:56.987Z,18.41
2023-05-25T02:36:27.232Z,18.46
2023-05-25T02:38:55.586Z,18.43
2023-05-25T02:41:26.411Z,18.40
2023-05-25T02:43:54.838Z,18.37
2023-05-25T02:46:24.589Z,18.42
2023-05-25T02:48:53.317Z,18.27
2023-05-25T02:51:21.762Z,18.24
2023-05-25T02:53:50.110Z,18.18
2023-05-25T02:56:18.781Z,18.13
2023-05-25T02:58:47.207Z,18.28
2023-05-25T03:01:18.439Z,18.24
2023-05-25T03:03:52.418Z,17.91
2023-05-25T03:06:21.605Z,18.32
2023-05-25T03:08:50.426Z,18.31
2023-05-25T03:11:19.306Z,18.22
2023-05-25T03:13:48.198Z,18.26
2023-05-25T03:16:17.996Z,18.40
2023-05-25T03:18:46.502Z,18.45
2023-05-25T03:21:16.424Z,18.54
2023-05-25T03:23:45.521Z,18.66
2023-05-25T03:26:13.953Z,18.30
2023-05-25T03:28:43.179Z,18.39
2023-05-25T03:31:12.224Z,18.45
2023-05-25T03:33:40.915Z,18.46
2023-05-25T03:36:09.971Z,18.40
2023-05-25T03:38:39.936Z,18.45
2023-05-25T03:41:08.400Z,18.54
2023-05-25T03:43:36.748Z,18.68
2023-05-25T03:46:06.244Z,18.79
2023-05-25T03:48:34.706Z,18.92
2023-05-25T03:51:03.071Z,18.71
2023-05-25T03:53:31.702Z,18.65
2023-05-25T03:56:01.421Z,18.83
2023-05-25T03:58:29.710Z,18.67
2023-05-25T04:00:58.389Z,18.75
2023-05-25T04:03:27.860Z,18.85
2023-05-25T04:05:57.359Z,18.92
2023-05-25T04:08:26.411Z,19.00
2023-05-25T04:10:55.099Z,18.98
2023-05-25T04:13:27.058Z,18.85
2023-05-25T04:15:55.834Z,19.14
2023-05-25T04:18:24.488Z,19.29
2023-05-25T04:20:52.910Z,19.74
2023-05-25T04:23:22.456Z,19.77
2023-05-25T04:25:51.868Z,19.99
2023-05-25T04:28:20.333Z,20.32
2023-05-25T04:30:51.677Z,20.28
2023-05-25T04:33:20.305Z,19.80
2023-05-25T04:35:50.553Z,20.17
2023-05-25T04:38:20.285Z,20.04
2023-05-25T04:40:49.262Z,19.72
2023-05-25T04:43:20.399Z,19.35
2023-05-25T04:45:51.415Z,19.10
2023-05-25T04:48:21.591Z,19.18
2023-05-25T04:50:50.368Z,18.91
2023-05-25T04:53:18.706Z,18.92
2023-05-25T04:55:47.212Z,18.86
2023-05-25T04:58:18.041Z,18.92
2023-05-25T05:00:47.247Z,18.75
2023-05-25T05:03:16.289Z,18.82
2023-05-25T05:05:46.649Z,18.88
2023-05-25T05:08:16.157Z,19.08
2023-05-25T05:10:44.924Z,19.22
2023-05-25T05:13:14.139Z,20.04
2023-05-25T05:15:43.858Z,19.87
2023-05-25T05:18:14.104Z,20.49
2023-05-25T05:20:42.983Z,20.63
2023-05-25T05:23:13.122Z,20.87
2023-05-25T05:25:41.647Z,21.03
2023-05-25T05:28:11.033Z,21.31
2023-05-25T05:30:39.758Z,21.14
2023-05-25T05:33:08.259Z,21.25
2023-05-25T05:35:37.266Z,21.23
2023-05-25T05:38:06.090Z,20.96
2023-05-25T05:40:36.140Z,20.61
2023-05-25T05:43:06.913Z,20.48
2023-05-25T05:45:35.657Z,21.12
2023-05-25T05:48:04.729Z,21.29
2023-05-25T05:50:34.945Z,21.46
2023-05-25T05:53:03.695Z,21.54
2023-05-25T05:55:32.202Z,21.49
2023-05-25T05:58:02.355Z,21.50
2023-05-25T06:00:30.879Z,21.22
2023-05-25T06:03:00.730Z,21.09
2023-05-25T06:05:29.918Z,20.93
2023-05-25T06:07:58.887Z,20.76
2023-05-25T06:10:27.244Z,20.53
2023-05-25T06:12:55.752Z,20.41
2023-05-25T06:15:25.813Z,20.21
2023-05-25T06:17:54.923Z,19.99
2023-05-25T06:20:24.052Z,19.62
2023-05-25T06:22:52.532Z,19.65
2023-05-25T06:25:21.210Z,19.97
2023-05-25T06:27:52.311Z,20.23
2023-05-25T06:30:21.034Z,20.36
2023-05-25T06:32:51.333Z,20.45
2023-05-25T06:35:21.026Z,20.61
2023-05-25T06:37:50.322Z,20.66
2023-05-25T06:40:19.392Z,20.56
2023-05-25T06:42:47.903Z,20.30
2023-05-25T06:45:25.398Z,20.57
2023-05-25T06:47:55.187Z,20.35
2023-05-25T06:50:23.550Z,20.44
2023-05-25T06:52:52.345Z,20.27
2023-05-25T06:55:20.879Z,20.17
2023-05-25T06:57:49.231Z,20.40
2023-05-25T07:00:18.287Z,20.77
2023-05-25T07:02:46.750Z,21.09
2023-05-25T07:05:16.636Z,21.08
2023-05-25T07:07:45.388Z,20.78
2023-05-25T07:10:13.890Z,20.82
2023-05-25T07:12:45.676Z,20.81
2023-05-25T07:15:15.447Z,20.89
2023-05-25T07:17:44.022Z,20.76
2023-05-25T07:20:13.314Z,21.00
2023-05-25T07:22:43.630Z,20.92
2023-05-25T07:25:12.076Z,20.97
2023-05-25T07:27:40.752Z,20.87
2023-05-25T07:30:10.227Z,21.06
2023-05-25T07:32:39.143Z,21.24
2023-05-25T07:35:07.906Z,21.24
2023-05-25T07:37:36.584Z,21.41
2023-05-25T07:40:07.486Z,21.46
2023-05-25T07:42:35.816Z,21.64
2023-05-25T07:45:04.772Z,21.60
2023-05-25T07:47:33.161Z,21.65
2023-05-25T07:50:01.636Z,21.72
2023-05-25T07:52:30.402Z,22.05
2023-05-25T07:54:58.845Z,22.08
2023-05-25T07:57:31.531Z,22.12
2023-05-25T08:00:00.241Z,22.22
2023-05-25T08:02:28.730Z,22.23
2023-05-25T08:04:57.590Z,22.23
2023-05-25T08:07:26.058Z,22.10
2023-05-25T08:09:54.497Z,22.46
2023-05-25T08:12:38.360Z,22.40
2023-05-25T08:15:13.536Z,22.43
2023-05-25T08:17:42.622Z,22.57
2023-05-25T08:20:11.366Z,22.24
2023-05-25T08:22:39.886Z,22.16
2023-05-25T08:25:09.029Z,22.13
2023-05-25T08:27:37.475Z,22.16
2023-05-25T08:30:06.962Z,22.11
2023-05-25T08:32:37.003Z,22.16
2023-05-25T08:35:05.778Z,22.64
2023-05-25T08:37:34.340Z,22.85
2023-05-25T08:40:03.384Z,22.71
2023-05-25T08:42:32.680Z,22.78
2023-05-25T08:45:02.361Z,22.95
2023-05-25T08:47:32.485Z,23.03
2023-05-25T08:50:08.829Z,23.22
2023-05-25T08:52:37.547Z,23.47
2023-05-25T08:55:06.669Z,23.39
2023-05-25T08:57:36.015Z,23.63
2023-05-25T09:00:07.405Z,23.88
2023-05-25T09:02:36.142Z,23.72
2023-05-25T09:05:05.068Z,23.76
2023-05-25T09:07:34.840Z,23.70
2023-05-25T09:10:03.658Z,23.93
2023-05-25T09:12:32.377Z,23.84
2023-05-25T09:15:00.928Z,23.59
2023-05-25T09:17:29.311Z,23.73
2023-05-25T09:19:58.205Z,23.78
2023-05-25T09:22:26.571Z,23.76
2023-05-25T09:24:56.491Z,23.70
2023-05-25T09:27:25.309Z,24.03
2023-05-25T09:29:53.798Z,24.04
2023-05-25T09:32:24.667Z,24.05
2023-05-25T09:34:53.522Z,24.40
2023-05-25T09:37:22.159Z,24.43
2023-05-25T09:39:51.915Z,24.31
2023-05-25T09:42:21.988Z,24.36
2023-05-25T09:44:50.375Z,24.28
2023-05-25T09:47:18.922Z,24.30
2023-05-25T09:49:49.476Z,24.75
2023-05-25T09:52:18.006Z,24.86
2023-05-25T09:54:46.821Z,24.55
2023-05-25T09:57:16.186Z,24.69
2023-05-25T09:59:46.267Z,24.91
2023-05-25T10:02:15.274Z,24.87
2023-05-25T10:04:43.883Z,24.77
2023-05-25T10:07:12.352Z,24.66
2023-05-25T10:09:41.662Z,24.47
2023-05-25T10:12:10.393Z,24.21
2023-05-25T10:14:39.164Z,24.34
2023-05-25T10:17:13.162Z,24.32
2023-05-25T10:19:45.577Z,24.69
2023-05-25T10:22:15.373Z,24.68
2023-05-25T10:24:45.007Z,24.69
2023-05-25T10:27:26.264Z,24.92
2023-05-25T10:29:55.466Z,24.51
2023-05-25T10:32:25.440Z,25.21
2023-05-25T10:34:53.875Z,24.97
2023-05-25T10:37:22.538Z,25.02
2023-05-25T10:39:51.056Z,24.96
2023-05-25T10:42:19.568Z,25.12
2023-05-25T10:44:48.260Z,25.08
2023-05-25T10:47:16.901Z,25.13
2023-05-25T10:50:04.403Z,25.02
2023-05-25T10:52:35.583Z,24.80
2023-05-25T10:55:05.435Z,25.06
2023-05-25T10:57:34.250Z,25.44
2023-05-25T11:00:06.264Z,25.57
2023-05-25T11:02:51.583Z,25.91
2023-05-25T11:05:32.589Z,25.85
2023-05-25T11:08:02.939Z,25.70
2023-05-25T11:10:44.020Z,25.66
2023-05-25T11:13:31.077Z,25.99
2023-05-25T11:16:15.518Z,25.81
2023-05-25T11:18:46.075Z,26.33
2023-05-25T11:21:14.959Z,26.20
2023-05-25T11:23:58.426Z,26.07
2023-05-25T11:26:27.372Z,25.95
2023-05-25T11:28:56.383Z,26.06
2023-05-25T11:31:30.156Z,26.24
2023-05-25T11:33:59.471Z,26.22
2023-05-25T11:36:27.932Z,26.24
2023-05-25T11:41:34.160Z,26.05
2023-05-25T11:44:04.699Z,26.17
2023-05-25T11:46:38.880Z,25.81
2023-05-25T11:49:07.692Z,25.39
2023-05-25T11:51:36.704Z,25.85
2023-05-25T11:54:05.867Z,25.84
2023-05-25T11:56:36.395Z,25.61
2023-05-25T11:59:05.057Z,26.45
2023-05-25T12:01:34.381Z,26.44
2023-05-25T12:04:07.583Z,26.71
2023-05-25T12:06:36.843Z,26.45
2023-05-25T12:09:06.597Z,26.70
2023-05-25T12:11:38.295Z,27.06
2023-05-25T12:14:07.489Z,27.12
2023-05-25T12:16:37.182Z,27.51
2023-05-25T12:19:05.764Z,27.14
2023-05-25T12:21:35.244Z,27.48
2023-05-25T12:24:06.311Z,27.64
2023-05-25T12:26:36.924Z,27.24
2023-05-25T12:29:05.943Z,27.06
2023-05-25T12:31:38.522Z,27.67
2023-05-25T12:34:07.491Z,27.66
2023-05-25T12:36:43.056Z,27.92
2023-05-25T12:39:11.811Z,27.70
2023-05-25T12:41:45.638Z,27.76
2023-05-25T12:44:17.839Z,27.91
2023-05-25T12:46:46.651Z,27.83
2023-05-25T12:49:29.719Z,27.75
2023-05-25T12:51:58.604Z,27.77
2023-05-25T12:54:36.655Z,28.04
2023-05-25T12:57:07.879Z,28.35
2023-05-25T12:59:36.632Z,28.44
2023-05-25T13:02:06.249Z,28.37
2023-05-25T13:04:34.944Z,28.50
2023-05-25T13:07:03.465Z,28.72
2023-05-25T13:09:32.776Z,28.32
2023-05-25T13:12:02.274Z,28.70
2023-05-25T13:14:31.954Z,28.45
2023-05-25T13:17:00.671Z,29.04
2023-05-25T13:19:29.000Z,29.55
2023-05-25T13:21:57.937Z,29.63
2023-05-25T13:24:26.536Z,29.06
2023-05-25T13:26:57.433Z,28.88
2023-05-25T13:29:25.901Z,28.23
2023-05-25T13:31:56.000Z,27.57
2023-05-25T13:34:24.443Z,27.82
2023-05-25T13:36:52.818Z,27.48
2023-05-25T13:39:22.683Z,27.43
2023-05-25T13:41:51.033Z,27.80
2023-05-25T13:44:19.484Z,27.88
2023-05-25T13:46:48.454Z,27.88
2023-05-25T13:49:19.686Z,27.19
2023-05-25T13:51:48.512Z,28.03
2023-05-25T13:54:17.293Z,28.36
2023-05-25T13:56:45.813Z,28.80
2023-05-25T13:59:14.481Z,28.88
2023-05-25T14:01:42.925Z,29.00
2023-05-25T14:04:12.561Z,29.15
2023-05-25T14:06:42.385Z,29.37
2023-05-25T14:09:12.690Z,29.38
2023-05-25T14:11:44.959Z,29.45
2023-05-25T14:14:27.132Z,29.76
2023-05-25T14:16:59.898Z,29.81
2023-05-25T14:19:28.288Z,29.75
2023-05-25T14:24:29.886Z,29.41
2023-05-25T14:26:58.301Z,29.23
2023-05-25T14:29:26.749Z,29.54
2023-05-25T14:31:55.545Z,29.49
2023-05-25T14:34:23.886Z,29.63
2023-05-25T14:36:52.295Z,29.81
2023-05-25T14:39:22.332Z,29.16
2023-05-25T14:41:50.916Z,29.27
2023-05-25T14:44:19.384Z,29.30
2023-05-25T14:46:48.129Z,29.29
2023-05-25T14:49:16.899Z,29.32
2023-05-25T14:51:45.334Z,29.86
2023-05-25T14:54:14.461Z,29.51
2023-05-25T14:56:44.197Z,29.61
2023-05-25T14:59:12.629Z,29.35
2023-05-25T15:01:41.450Z,29.89
2023-05-25T15:04:09.945Z,29.47
2023-05-25T15:06:39.449Z,29.58
2023-05-25T15:09:08.053Z,29.91
2023-05-25T15:11:36.450Z,30.06
2023-05-25T15:14:06.104Z,29.59
2023-05-25T15:16:35.067Z,29.12
2023-05-25T15:19:03.602Z,29.16
2023-05-25T15:21:32.014Z,29.06
2023-05-25T15:24:00.830Z,29.37
2023-05-25T15:26:29.223Z,29.27
2023-05-25T15:28:58.011Z,29.05
2023-05-25T15:31:28.119Z,28.39
2023-05-25T15:33:58.873Z,28.43
2023-05-25T15:36:28.015Z,28.44
2023-05-25T15:38:56.384Z,28.49
2023-05-25T15:41:24.768Z,28.27
2023-05-25T15:43:57.906Z,28.30
2023-05-25T15:46:27.904Z,28.66
2023-05-25T15:48:56.660Z,28.97
2023-05-25T15:51:24.996Z,28.76
2023-05-25T15:53:54.808Z,28.60
2023-05-25T15:56:23.789Z,29.05
2023-05-25T15:58:52.907Z,29.27
2023-05-25T16:01:21.384Z,28.94
2023-05-25T16:03:51.396Z,29.13
2023-05-25T16:06:19.842Z,29.03
2023-05-25T16:08:48.227Z,28.97
2023-05-25T16:11:16.849Z,28.72
2023-05-25T16:13:45.223Z,28.36
2023-05-25T16:16:13.686Z,28.53
2023-05-25T16:18:42.643Z,28.54
2023-05-25T16:21:12.575Z,28.66
2023-05-25T16:23:40.977Z,28.86
2023-05-25T16:26:10.225Z,28.72
2023-05-25T16:28:38.797Z,28.94
2023-05-25T16:31:07.310Z,28.44
2023-05-25T16:33:35.919Z,28.09
2023-05-25T16:36:04.399Z,27.91
2023-05-25T16:38:34.077Z,27.60
2023-05-25T16:41:02.736Z,27.37
2023-05-25T16:43:31.068Z,27.34
2023-05-25T16:45:59.488Z,27.18
2023-05-25T16:48:30.114Z,27.07
2023-05-25T16:50:58.563Z,26.69
2023-05-25T16:53:26.898Z,26.35
2023-05-25T16:55:56.955Z,26.48
2023-05-25T16:58:25.405Z,26.75
2023-05-25T17:00:53.977Z,26.67
2023-05-25T17:03:22.741Z,26.54
2023-05-25T17:05:53.748Z,26.35
2023-05-25T17:08:22.597Z,26.29
2023-05-25T17:10:51.016Z,26.03
2023-05-25T17:13:21.356Z,25.89
2023-05-25T17:15:50.323Z,25.71
2023-05-25T17:18:18.779Z,25.25
2023-05-25T17:20:47.238Z,25.67
2023-05-25T17:23:17.064Z,25.79
2023-05-25T17:25:46.026Z,25.15
2023-05-25T17:28:14.515Z,25.19
2023-05-25T17:30:44.532Z,25.39
2023-05-25T17:33:12.971Z,25.19
2023-05-25T17:35:41.325Z,25.36
2023-05-25T17:38:09.967Z,25.53
2023-05-25T17:40:38.289Z,25.56
2023-05-25T17:43:06.659Z,25.25
2023-05-25T17:45:35.424Z,24.76
2023-05-25T17:48:05.197Z,24.75
2023-05-25T17:50:33.554Z,24.63
2023-05-25T17:53:04.944Z,24.48
2023-05-25T17:55:33.305Z,24.56
2023-05-25T17:58:01.934Z,24.58
2023-05-25T18:00:30.869Z,24.87
2023-05-25T18:02:59.583Z,25.04
2023-05-25T18:05:29.381Z,25.06
2023-05-25T18:07:57.810Z,24.74
2023-05-25T18:10:26.446Z,24.82
2023-05-25T18:12:54.794Z,24.60
2023-05-25T18:15:23.250Z,24.50
2023-05-25T18:17:52.015Z,24.37
2023-05-25T18:20:20.498Z,24.34
2023-05-25T18:22:50.316Z,24.20
2023-05-25T18:25:18.959Z,24.51
2023-05-25T18:27:47.908Z,24.57
2023-05-25T18:30:16.473Z,24.18
2023-05-25T18:32:45.144Z,24.22
2023-05-25T18:35:17.292Z,24.00
2023-05-25T18:37:45.981Z,23.92
2023-05-25T18:40:16.455Z,23.73
2023-05-25T18:42:44.895Z,23.76
2023-05-25T18:45:13.604Z,23.76
2023-05-25T18:47:42.123Z,23.79
2023-05-25T18:50:11.903Z,23.54
2023-05-25T18:52:41.400Z,23.87
2023-05-25T18:55:09.925Z,23.78
2023-05-25T18:57:39.667Z,23.49
2023-05-25T19:00:08.993Z,23.53
2023-05-25T19:02:38.721Z,23.58
2023-05-25T19:05:08.092Z,23.66
2023-05-25T19:07:50.706Z,23.58
2023-05-25T19:10:26.697Z,23.56
2023-05-25T19:12:56.445Z,23.47
2023-05-25T19:15:24.812Z,23.14
2023-05-25T19:17:53.486Z,23.04
2023-05-25T19:20:21.902Z,23.15
2023-05-25T19:22:50.457Z,23.23
2023-05-25T19:25:19.531Z,23.31
2023-05-25T19:27:48.541Z,23.16
2023-05-25T19:30:18.412Z,23.36
2023-05-25T19:32:47.083Z,23.07
2023-05-25T19:35:15.567Z,23.09
2023-05-25T19:37:43.911Z,23.12
2023-05-25T19:40:13.460Z,23.10
2023-05-25T19:42:41.937Z,22.82
2023-05-25T19:45:10.995Z,22.79
2023-05-25T19:47:41.083Z,22.80
2023-05-25T19:50:09.854Z,22.94
2023-05-25T19:52:38.282Z,22.67
2023-05-25T19:55:07.369Z,22.53
2023-05-25T19:57:35.810Z,22.48
2023-05-25T20:00:05.897Z,22.36
2023-05-25T20:02:41.402Z,22.33
2023-05-25T20:05:10.740Z,22.06
2023-05-25T20:07:39.175Z,22.07
2023-05-25T20:10:08.308Z,21.95
2023-05-25T20:12:36.964Z,21.87
2023-05-25T20:15:05.646Z,22.08
2023-05-25T20:17:34.121Z,22.03
2023-05-25T20:20:05.176Z,21.79
2023-05-25T20:22:33.649Z,21.44
2023-05-25T20:25:02.068Z,21.72
2023-05-25T20:27:30.758Z,21.76
2023-05-25T20:29:59.145Z,21.65
2023-05-25T20:32:27.554Z,21.56
2023-05-25T20:34:56.290Z,21.71
2023-05-25T20:37:25.952Z,21.48
2023-05-25T20:39:54.257Z,21.65
2023-05-25T20:42:22.983Z,21.62
2023-05-25T20:44:51.479Z,21.49
2023-05-25T20:47:19.856Z,21.51
2023-05-25T20:49:48.539Z,21.58
2023-05-25T20:52:16.933Z,21.58
2023-05-25T20:54:46.712Z,21.76
2023-05-25T20:57:15.337Z,21.65
2023-05-25T20:59:43.755Z,21.59
2023-05-25T21:02:12.242Z,21.64
2023-05-25T21:04:40.892Z,21.49
2023-05-25T21:07:09.318Z,21.70
2023-05-25T21:09:37.663Z,21.69
2023-05-25T21:12:07.781Z,21.62
2023-05-25T21:14:36.505Z,21.83
2023-05-25T21:17:06.263Z,21.74
2023-05-25T21:19:34.883Z,21.88
2023-05-25T21:22:03.638Z,21.77
2023-05-25T21:24:31.957Z,21.81
2023-05-25T21:27:01.509Z,21.64
2023-05-25T21:29:31.266Z,21.80
2023-05-25T21:31:59.813Z,21.69
2023-05-25T21:34:28.500Z,21.76
2023-05-25T21:36:56.916Z,21.47
2023-05-25T21:39:25.351Z,21.64
2023-05-25T21:41:54.034Z,21.56
2023-05-25T21:44:22.414Z,21.76
2023-05-25T21:46:52.187Z,21.63
2023-05-25T21:49:20.936Z,21.39
2023-05-25T21:51:49.681Z,21.59
2023-05-25T21:54:20.488Z,21.47
2023-05-25T21:56:49.222Z,21.55
2023-05-25T21:59:17.706Z,21.48
2023-05-25T22:01:46.191Z,21.59
2023-05-25T22:04:16.307Z,21.42
2023-05-25T22:06:45.036Z,21.44
2023-05-25T22:09:13.745Z,21.40
2023-05-25T22:11:42.856Z,21.55
2023-05-25T22:14:12.194Z,21.57
2023-05-25T22:16:40.772Z,21.47
2023-05-25T22:19:09.403Z,21.50
2023-05-25T22:21:41.337Z,21.40
2023-05-25T22:24:10.049Z,21.18
2023-05-25T22:26:38.406Z,21.17
2023-05-25T22:29:06.875Z,21.18
2023-05-25T22:31:35.647Z,21.11
2023-05-25T22:34:06.254Z,21.12
2023-05-25T22:36:34.904Z,21.13
2023-05-25T22:39:04.633Z,21.10
2023-05-25T22:41:32.947Z,21.10
2023-05-25T22:44:01.551Z,20.82
2023-05-25T22:46:29.924Z,20.95
2023-05-25T22:48:58.366Z,20.77
2023-05-25T22:51:26.974Z,20.73
2023-05-25T22:53:55.275Z,20.81
2023-05-25T22:56:24.955Z,20.84
2023-05-25T22:58:53.585Z,20.91
2023-05-25T23:01:24.134Z,20.68
2023-05-25T23:03:52.970Z,20.81
2023-05-25T23:06:21.711Z,20.74
2023-05-25T23:08:50.067Z,20.72
2023-05-25T23:11:18.442Z,20.64
2023-05-25T23:13:50.618Z,20.74
2023-05-25T23:16:19.088Z,20.61
2023-05-25T23:18:47.782Z,20.63
2023-05-25T23:21:16.305Z,20.29
2023-05-25T23:23:44.691Z,20.18
2023-05-25T23:26:13.288Z,20.49
2023-05-25T23:28:41.683Z,20.54
2023-05-25T23:31:11.450Z,20.46
2023-05-25T23:33:40.080Z,20.38
2023-05-25T23:36:08.640Z,20.13
2023-05-25T23:38:37.006Z,20.28
2023-05-25T23:41:05.749Z,19.94
2023-05-25T23:43:34.083Z,19.81
2023-05-25T23:46:02.492Z,20.02
2023-05-25T23:48:32.549Z,20.03
2023-05-25T23:51:01.066Z,19.94
2023-05-25T23:53:29.420Z,19.95
2023-05-25T23:55:58.098Z,20.08
2023-05-25T23:58:26.421Z,19.95
